Terminal Aerodrome Forecast
Issued by NWS Nashville, TN

Home | Current Version | Previous Version | Text Only | Print | Product List | Glossary On
Versions: 1 2 3 4 5 6 7 8 9 10 11 12 13 14 15 16 17 18 19 20 21 22 23
000
FTUS44 KOHX 231700 RRA
TAFBNA
TAF
KBNA 231740Z 2318/2418 28006KT P6SM VCTS BKN050CB BKN120 BKN250
     FM240300 32003KT P6SM SCT120 BKN250
     FM241600 04003KT P6SM VCTS SCT050CB BKN120 BKN250=

USA.gov is the U.S. government's official web portal to all federal, state and local government web resources and services.